Berea, Ohio
Current Conditions -  °F | °C
As of 10:51 PM on Friday 28 Nov 2014 (Local Time) from KCLE Reporting Station
Overcast Overcast  
Wind Chill: 20°   Ceiling: 7000
Heat Index: 29°   Visibility: 10mi
Dew Point: 18°   Wind: 10mph
Humidity: 64%   Direction: 180°S
Pressure: 30.16"   Gusts: NA
Location:  41.37°N, 81.85°W
Report Text: KCLE 290351Z 18009KT 10SM OVC070 M02/M08 A3016 RMK AO2 SLP222 T10171078 $
Loading
Personal Weather Stations






























Interactive Weather Map New forecast layout! Learn more

10-Day Weather Forecast

Advertisements
Track Severe Weather on mobile